• Join FlightAware (Why Join?)
  • Login
  • US Flag 
02:45PM EDT


 

Airport Tracker/Info


-or-


 

Live Flight TrackerFlight Track Log ✈ N27GF ✈ 12-May-2013 ✈ KHHR - KSEE

Flight Track Log - Related Links

Times and Time Zones

All times are in EDT time to prevent confusion due to time zone crossing. See the N27GF flight status page for this flight to view local times or setup timezone preferences in your user account.

Time Position Orientation Groundspeed Altitude Reporting Facility
EDT Latitude Longitude Course Direction KTS MPH feet Rate Location/Type
09:26PM 33.9000 -118.3500 140° Southeast 63 72 1,300  Level Southern California TRACON
09:27PM 33.8833 -118.3667 220° Southwest 62 71 1,900 600 Climbing Southern California TRACON
09:28PM 33.8875 -118.3633 34° Northeast 58 67 2,100 600 Climbing Los Angeles Center
09:29PM 33.8661 -118.3703 195° South 65 75 2,800 540 Climbing Los Angeles Center
09:30PM 33.8464 -118.3700 179° South 70 81 3,300 480 Climbing Los Angeles Center
09:31PM 33.8275 -118.3711 183° South 70 81 3,900 480 Climbing Los Angeles Center
09:32PM 33.8200 -118.2033 140° Southeast  Level FlightAware Approximate
09:32PM 33.8089 -118.3603 154° Southeast 80 92 4,300  Level Los Angeles Center
09:33PM 33.7942 -118.3433 136° Southeast 76 87 4,800 420 Climbing Los Angeles Center
09:34PM 33.7772 -118.3281 143° Southeast 75 86 5,200 360 Climbing Los Angeles Center
09:35PM 33.7608 -118.3128 142° Southeast 73 84 5,600 360 Climbing Los Angeles Center
09:36PM 33.7583 -118.2828 96° East 79 91 6,100 300 Climbing Los Angeles Center
09:37PM 33.7647 -118.2494 77° East 84 97 6,300  Climbing Los Angeles Center
09:38PM 33.7697 -118.2164 80° East 95 109 6,100 -60 Descending Los Angeles Center
09:39PM 33.7719 -118.1831 85° East 100 115 6,200  Climbing Los Angeles Center
09:40PM 33.7744 -118.1483 85° East 102 117 6,100 -60 Descending Los Angeles Center
09:41PM 33.7769 -118.1128 85° East 105 121 6,100  Level Los Angeles Center
09:42PM 33.7833 -118.0667 81° East 104 120 6,100 -60 Level Southern California TRACON
09:43PM 33.7667 -118.0333 121° Southeast 107 123 6,000 -60 Descending Southern California TRACON
09:44PM 33.7500 -118.0167 140° Southeast 116 133 6,000  Level Southern California TRACON
09:45PM 33.7333 -117.9833 121° Southeast 108 124 6,100 60 Climbing Southern California TRACON
09:47PM 33.7167 -117.9500 121° Southeast 112 129 6,200  Climbing Southern California TRACON
09:47PM 33.6833 -117.9333 157° South 110 127 6,100 -60 Descending Southern California TRACON
09:48PM 33.6667 -117.9000 121° Southeast 108 124 6,100  Level Southern California TRACON
09:49PM 33.6500 -117.8833 140° Southeast 108 124 6,100  Level Southern California TRACON
09:50PM 33.6167 -117.8500 140° Southeast 109 125 6,100 -240 Level Southern California TRACON
09:51PM 33.6000 -117.8333 140° Southeast 112 129 5,700 -480 Descending Southern California TRACON
09:53PM 33.5833 -117.8000 121° Southeast 116 133 5,100 -300 Descending Southern California TRACON
09:54PM 33.5500 -117.7667 140° Southeast 115 132 5,100  Level Southern California TRACON
09:54PM 33.5333 -117.7500 140° Southeast 113 130 5,100  Level Southern California TRACON
09:55PM 33.5167 -117.7167 121° Southeast 112 129 5,100  Level Southern California TRACON
09:57PM 33.4833 -117.7000 157° South 113 130 5,100 60 Level Southern California TRACON
09:58PM 33.4667 -117.6667 121° Southeast 109 125 5,300 300 Climbing Southern California TRACON
09:59PM 33.4500 -117.6500 140° Southeast 88 101 5,800 360 Climbing Southern California TRACON
10:00PM 33.4167 -117.6333 157° South 100 115 6,100 120 Climbing Southern California TRACON
10:01PM 33.4000 -117.6000 121° Southeast 110 127 6,100  Level Southern California TRACON
10:02PM 33.3833 -117.5667 121° Southeast 109 125 6,100  Level Southern California TRACON
10:03PM 33.3667 -117.5500 140° Southeast 106 122 6,100  Level Southern California TRACON
10:04PM 33.3333 -117.5333 157° South 107 123 6,100  Level Southern California TRACON
10:04PM 33.3167 -117.5000 121° Southeast 109 125 6,100  Level Southern California TRACON
10:06PM 33.3000 -117.4833 140° Southeast 107 123 6,100  Level Southern California TRACON
10:06PM 33.2833 -117.4500 121° Southeast 107 123 6,100  Level Southern California TRACON
10:07PM 33.2500 -117.4333 157° South 101 116 6,100  Level Southern California TRACON
10:08PM 33.2333 -117.4167 140° Southeast 107 123 6,100  Level Southern California TRACON
10:09PM 33.2167 -117.3833 121° Southeast 105 121 6,100  Level Southern California TRACON
10:10PM 33.2000 -117.3500 121° Southeast 106 122 6,100  Level Southern California TRACON
10:11PM 33.1833 -117.3333 140° Southeast 102 117 6,100  Level Southern California TRACON
10:12PM 33.1667 -117.3000 121° Southeast 100 115 6,200  Climbing Southern California TRACON
10:13PM 33.1500 -117.2667 121° Southeast 105 121 6,100 -120 Descending Southern California TRACON
10:14PM 33.1500 -117.2333 90° East 105 121 6,000 -60 Descending Southern California TRACON
10:15PM 33.1167 -117.2167 157° South 106 122 6,000  Level Southern California TRACON
10:16PM 33.1000 -117.1833 121° Southeast 104 120 6,100 60 Climbing Southern California TRACON
10:17PM 33.0833 -117.1500 121° Southeast 106 122 6,200  Climbing Southern California TRACON
10:18PM 33.0667 -117.1333 140° Southeast 103 119 6,200 -60 Level Southern California TRACON
10:19PM 33.0500 -117.1000 121° Southeast 111 128 6,100 -60 Descending Southern California TRACON
10:20PM 33.0333 -117.0667 121° Southeast 108 124 6,100  Level Southern California TRACON
10:21PM 33.0167 -117.0500 140° Southeast 104 120 6,100  Level Southern California TRACON
10:22PM 33.0000 -117.0167 121° Southeast 100 115 6,200  Climbing Southern California TRACON
10:23PM 32.9833 -117.0000 140° Southeast 104 120 6,100 -120 Descending Southern California TRACON
10:24PM 32.9667 -116.9667 121° Southeast 104 120 6,000 -60 Descending Southern California TRACON
10:25PM 32.9500 -116.9333 121° Southeast 102 117 6,000  Level Southern California TRACON
10:26PM 32.9333 -116.9167 140° Southeast 100 115 6,100  Climbing Southern California TRACON
10:27PM 32.9167 -116.8833 121° Southeast 103 119 6,100 -60 Level Southern California TRACON
10:28PM 32.9000 -116.8667 140° Southeast 102 117 6,000 -240 Descending Southern California TRACON
10:29PM 32.8667 -116.8333 140° Southeast 111 128 5,700 -240 Descending Southern California TRACON
10:30PM 32.8500 -116.8000 121° Southeast 106 122 5,600  Descending Southern California TRACON
10:31PM 32.8333 -116.7833 140° Southeast 105 121 5,700  Climbing Southern California TRACON
10:32PM 32.8167 -116.7667 140° Southeast 111 128 5,700 -120 Level Southern California TRACON
10:33PM 32.8000 -116.7833 220° Southwest 107 123 5,500 -480 Descending Southern California TRACON
10:35PM 32.8000 -116.8167 270° West 100 115 4,700 -780 Descending Southern California TRACON
10:35PM 32.8000 -116.8500 270° West 104 120 4,000 -900 Descending Southern California TRACON
10:36PM 32.8167 -116.8833 301° West 101 116 3,000 -960 Descending Southern California TRACON
10:38PM 32.8167 -116.9167 270° West 89 102 2,100 -720 Descending Southern California TRACON
10:38PM 32.8167 -116.9333 270° West 78 90 1,600 -480 Descending Southern California TRACON
10:39PM 32.8333 -116.9667 301° West 86 99 1,200 -420 Descending Southern California TRACON
10:41PM 32.8262 -116.9724 257° West  Level Estimated
10:48PM 32.8262 -116.9724 257° West  Level Estimated
10:49PM 32.8262 -116.9724 257° West  Level Estimated
10:50PM 32.8262 -116.9724 257° West  Level Estimated